createdAt,value
2022-12-31T00:01:26.755Z,6.97
2022-12-31T00:03:56.072Z,7.01
2022-12-31T00:06:26.159Z,7.04
2022-12-31T00:08:55.795Z,7.10
2022-12-31T00:11:25.892Z,7.11
2022-12-31T00:13:55.095Z,7.01
2022-12-31T00:16:25.431Z,7.02
2022-12-31T00:18:56.725Z,7.07
2022-12-31T00:21:26.403Z,7.09
2022-12-31T00:23:55.615Z,7.15
2022-12-31T00:26:26.202Z,7.10
2022-12-31T00:28:55.865Z,7.12
2022-12-31T00:31:26.469Z,7.10
2022-12-31T00:33:57.200Z,7.02
2022-12-31T00:36:27.599Z,7.12
2022-12-31T00:38:57.348Z,7.07
2022-12-31T00:41:26.942Z,6.92
2022-12-31T00:43:56.412Z,7.05
2022-12-31T00:46:26.078Z,7.12
2022-12-31T00:48:56.734Z,7.15
2022-12-31T00:51:27.666Z,7.25
2022-12-31T00:53:57.357Z,7.14
2022-12-31T00:56:28.060Z,7.18
2022-12-31T00:58:57.330Z,7.28
2022-12-31T01:01:27.674Z,7.19
2022-12-31T01:03:59.585Z,7.11
2022-12-31T01:06:29.148Z,7.14
2022-12-31T01:08:58.398Z,7.25
2022-12-31T01:11:29.605Z,7.25
2022-12-31T01:13:59.994Z,7.33
2022-12-31T01:16:30.158Z,7.30
2022-12-31T01:19:01.382Z,7.38
2022-12-31T01:21:30.922Z,7.43
2022-12-31T01:24:00.097Z,7.42
2022-12-31T01:26:29.665Z,7.42
2022-12-31T01:28:58.990Z,7.45
2022-12-31T01:31:28.617Z,7.50
2022-12-31T01:33:57.903Z,7.49
2022-12-31T01:36:29.523Z,7.55
2022-12-31T01:38:59.424Z,7.58
2022-12-31T01:41:29.656Z,7.49
2022-12-31T01:43:59.937Z,7.55
2022-12-31T01:46:30.996Z,7.51
2022-12-31T01:49:01.242Z,7.50
2022-12-31T01:51:33.184Z,7.55
2022-12-31T01:54:02.411Z,7.51
2022-12-31T01:56:31.982Z,7.62
2022-12-31T01:59:01.177Z,7.69
2022-12-31T02:01:31.086Z,7.56
2022-12-31T02:04:00.476Z,7.56
2022-12-31T02:06:34.091Z,7.67
2022-12-31T02:09:03.351Z,7.70
2022-12-31T02:11:36.614Z,7.67
2022-12-31T02:14:06.677Z,7.39
2022-12-31T02:16:36.916Z,7.48
2022-12-31T02:19:09.099Z,7.45
2022-12-31T02:21:43.178Z,7.66
2022-12-31T02:24:34.256Z,7.66
2022-12-31T02:27:05.353Z,7.76
2022-12-31T02:29:49.354Z,7.85
2022-12-31T02:32:21.650Z,7.87
2022-12-31T02:34:52.517Z,7.75
2022-12-31T02:37:22.025Z,7.83
2022-12-31T02:39:51.246Z,7.91
2022-12-31T02:42:20.755Z,7.91
2022-12-31T02:44:49.963Z,7.84
2022-12-31T02:47:23.338Z,7.80
2022-12-31T02:49:56.433Z,7.93
2022-12-31T02:52:27.363Z,7.97
2022-12-31T02:54:58.547Z,7.92
2022-12-31T02:57:28.621Z,7.98
2022-12-31T03:00:16.453Z,7.99
2022-12-31T03:02:47.785Z,8.01
2022-12-31T03:05:17.555Z,7.99
2022-12-31T03:07:47.149Z,8.00
2022-12-31T03:10:16.438Z,7.85
2022-12-31T03:12:48.349Z,7.89
2022-12-31T03:15:21.508Z,7.90
2022-12-31T03:17:53.735Z,7.93
2022-12-31T03:20:41.021Z,7.95
2022-12-31T03:23:12.226Z,7.93
2022-12-31T03:25:40.425Z,7.64
2022-12-31T03:28:10.550Z,7.85
2022-12-31T03:30:40.425Z,7.81
2022-12-31T03:33:11.377Z,7.79
2022-12-31T03:35:41.718Z,7.73
2022-12-31T03:38:11.376Z,7.66
2022-12-31T03:40:41.197Z,7.98
2022-12-31T03:43:10.799Z,8.02
2022-12-31T03:45:40.169Z,8.03
2022-12-31T03:48:11.767Z,8.15
2022-12-31T03:50:40.983Z,8.08
2022-12-31T03:53:11.405Z,7.70
2022-12-31T03:55:40.613Z,7.71
2022-12-31T03:58:10.245Z,7.93
2022-12-31T04:00:39.549Z,7.85
2022-12-31T04:03:09.160Z,7.87
2022-12-31T04:05:40.485Z,8.01
2022-12-31T04:08:10.004Z,7.98
2022-12-31T04:10:39.263Z,7.77
2022-12-31T04:13:08.808Z,7.78
2022-12-31T04:15:38.005Z,7.77
2022-12-31T04:18:07.573Z,7.73
2022-12-31T04:20:36.813Z,8.09
2022-12-31T04:23:08.199Z,8.14
2022-12-31T04:25:37.395Z,8.10
2022-12-31T04:28:06.898Z,7.82
2022-12-31T04:30:36.090Z,7.82
2022-12-31T04:33:05.694Z,7.71
2022-12-31T04:35:34.875Z,7.70
2022-12-31T04:38:04.419Z,7.87
2022-12-31T04:40:35.076Z,7.90
2022-12-31T04:43:04.678Z,7.88
2022-12-31T04:45:33.907Z,7.76
2022-12-31T04:48:03.539Z,7.94
2022-12-31T04:50:32.776Z,7.85
2022-12-31T04:53:02.392Z,7.72
2022-12-31T04:55:31.519Z,7.82
2022-12-31T04:58:02.719Z,7.93
2022-12-31T05:00:31.913Z,7.85
2022-12-31T05:03:01.579Z,7.81
2022-12-31T05:05:31.416Z,7.93
2022-12-31T05:08:01.053Z,7.95
2022-12-31T05:10:30.250Z,7.97
2022-12-31T05:13:00.098Z,7.96
2022-12-31T05:15:30.809Z,8.06
2022-12-31T05:18:00.431Z,8.07
2022-12-31T05:20:29.810Z,8.19
2022-12-31T05:22:59.414Z,8.26
2022-12-31T05:25:28.689Z,8.48
2022-12-31T05:27:58.261Z,8.13
2022-12-31T05:30:27.496Z,8.26
2022-12-31T05:32:58.608Z,8.22
2022-12-31T05:35:27.864Z,8.24
2022-12-31T05:37:57.494Z,8.10
2022-12-31T05:40:26.695Z,8.25
2022-12-31T05:42:56.354Z,8.49
2022-12-31T05:45:30.738Z,8.39
2022-12-31T05:48:02.293Z,8.35
2022-12-31T05:50:31.543Z,8.26
2022-12-31T05:53:03.871Z,8.25
2022-12-31T05:55:33.044Z,8.27
2022-12-31T05:58:02.606Z,8.33
2022-12-31T06:00:31.819Z,8.23
2022-12-31T06:03:02.931Z,8.29
2022-12-31T06:05:32.446Z,8.37
2022-12-31T06:08:01.994Z,8.49
2022-12-31T06:10:31.224Z,8.34
2022-12-31T06:13:00.747Z,8.56
2022-12-31T06:15:30.104Z,8.45
2022-12-31T06:17:59.713Z,8.62
2022-12-31T06:20:30.412Z,8.79
2022-12-31T06:23:00.046Z,8.70
2022-12-31T06:25:29.311Z,8.77
2022-12-31T06:27:58.881Z,8.75
2022-12-31T06:30:28.102Z,8.69
2022-12-31T06:32:57.656Z,8.64
2022-12-31T06:35:26.957Z,8.62
2022-12-31T06:37:57.947Z,8.55
2022-12-31T06:40:27.173Z,8.67
2022-12-31T06:43:00.130Z,8.85
2022-12-31T06:45:29.811Z,8.98
2022-12-31T06:47:59.383Z,9.02
2022-12-31T06:50:28.810Z,9.09
2022-12-31T06:52:59.790Z,9.16
2022-12-31T06:55:29.428Z,9.08
2022-12-31T06:57:59.093Z,8.95
2022-12-31T07:00:28.692Z,8.91
2022-12-31T07:03:16.084Z,9.08
2022-12-31T07:05:47.071Z,8.78
2022-12-31T07:08:31.131Z,8.85
2022-12-31T07:11:01.467Z,8.79
2022-12-31T07:13:39.257Z,8.85
2022-12-31T07:16:11.662Z,9.06
2022-12-31T07:18:43.051Z,9.02
2022-12-31T07:21:13.862Z,9.16
2022-12-31T07:23:45.347Z,9.15
2022-12-31T07:26:16.511Z,9.29
2022-12-31T07:28:49.251Z,9.24
2022-12-31T07:31:19.508Z,9.32
2022-12-31T07:33:51.590Z,9.09
2022-12-31T07:36:24.578Z,9.02
2022-12-31T07:38:57.214Z,9.26
2022-12-31T07:41:31.413Z,9.26
2022-12-31T07:44:01.817Z,9.09
2022-12-31T07:46:33.179Z,9.31
2022-12-31T07:49:03.029Z,9.37
2022-12-31T07:51:32.527Z,9.39
2022-12-31T07:54:06.378Z,9.30
2022-12-31T07:56:38.090Z,9.25
2022-12-31T07:59:09.876Z,9.36
2022-12-31T08:01:42.094Z,9.55
2022-12-31T08:04:15.417Z,9.51
2022-12-31T08:06:46.159Z,9.67
2022-12-31T08:09:21.510Z,9.75
2022-12-31T08:11:51.401Z,9.47
2022-12-31T08:14:21.170Z,9.60
2022-12-31T08:16:50.710Z,9.59
2022-12-31T08:19:23.664Z,9.70
2022-12-31T08:21:56.608Z,9.70
2022-12-31T08:24:28.726Z,9.66
2022-12-31T08:26:59.305Z,9.79
2022-12-31T08:29:32.365Z,9.69
2022-12-31T08:32:02.801Z,9.68
2022-12-31T08:34:33.697Z,9.82
2022-12-31T08:37:04.669Z,9.94
2022-12-31T08:39:38.925Z,10.09
2022-12-31T08:42:10.304Z,10.16
2022-12-31T08:44:41.559Z,10.23
2022-12-31T08:47:11.897Z,10.28
2022-12-31T08:49:42.422Z,10.31
2022-12-31T08:52:14.942Z,10.33
2022-12-31T08:54:46.401Z,10.37
2022-12-31T08:57:16.898Z,10.40
2022-12-31T08:59:48.407Z,10.44
2022-12-31T09:02:32.387Z,10.41
2022-12-31T09:05:03.596Z,10.47
2022-12-31T09:07:33.544Z,10.50
2022-12-31T09:10:06.143Z,10.45
2022-12-31T09:12:37.145Z,10.53
2022-12-31T09:15:08.267Z,10.56
2022-12-31T09:17:41.554Z,10.58
2022-12-31T09:20:15.990Z,10.53
2022-12-31T09:22:45.421Z,10.34
2022-12-31T09:25:17.419Z,10.23
2022-12-31T09:27:48.146Z,10.36
2022-12-31T09:30:17.861Z,10.23
2022-12-31T09:32:49.304Z,10.29
2022-12-31T09:35:21.481Z,10.45
2022-12-31T09:37:51.077Z,10.50
2022-12-31T09:40:50.446Z,10.53
2022-12-31T09:43:26.295Z,10.64
2022-12-31T09:46:06.609Z,10.53
2022-12-31T09:48:49.425Z,10.64
2022-12-31T09:51:33.741Z,10.62
2022-12-31T09:54:18.208Z,10.69
2022-12-31T09:56:50.912Z,10.65
2022-12-31T09:59:25.065Z,10.66
2022-12-31T10:01:55.502Z,10.68
2022-12-31T10:04:39.487Z,10.71
2022-12-31T10:07:16.076Z,10.75
2022-12-31T10:09:48.395Z,10.79
2022-12-31T10:12:24.192Z,10.82
2022-12-31T10:14:59.312Z,10.83
2022-12-31T10:17:31.562Z,10.87
2022-12-31T10:20:12.420Z,10.86
2022-12-31T10:22:44.499Z,10.90
2022-12-31T10:25:39.217Z,10.82
2022-12-31T10:28:14.499Z,10.89
2022-12-31T10:30:50.028Z,10.89
2022-12-31T10:33:23.218Z,10.86
2022-12-31T10:35:53.259Z,10.80
2022-12-31T10:38:25.309Z,10.88
2022-12-31T10:41:13.263Z,10.94
2022-12-31T10:44:00.412Z,10.95
2022-12-31T10:46:36.471Z,10.74
2022-12-31T10:49:17.235Z,10.86
2022-12-31T10:52:07.128Z,10.95
2022-12-31T10:54:44.397Z,11.00
2022-12-31T10:57:34.306Z,11.01
2022-12-31T11:00:10.490Z,11.02
2022-12-31T11:03:00.685Z,10.99
2022-12-31T11:05:37.431Z,11.06
2022-12-31T11:08:20.335Z,11.07
2022-12-31T11:11:04.630Z,11.08
2022-12-31T11:14:00.591Z,11.13
2022-12-31T11:16:41.341Z,11.13
2022-12-31T11:19:12.305Z,11.12
2022-12-31T11:21:47.185Z,11.12
2022-12-31T11:24:19.663Z,11.16
2022-12-31T11:26:52.297Z,11.17
2022-12-31T11:29:31.998Z,11.16
2022-12-31T11:32:07.068Z,11.19
2022-12-31T11:34:57.078Z,11.21
2022-12-31T11:37:32.949Z,11.20
2022-12-31T11:40:04.369Z,11.23
2022-12-31T11:42:38.395Z,11.17
2022-12-31T11:45:14.525Z,11.23
2022-12-31T11:48:20.583Z,11.24
2022-12-31T11:50:38.362Z,11.27
2022-12-31T11:53:13.608Z,11.27
2022-12-31T11:55:44.951Z,11.29
2022-12-31T11:58:15.884Z,11.31
2022-12-31T12:00:46.407Z,11.27
2022-12-31T12:03:15.959Z,11.28
2022-12-31T12:05:45.238Z,11.37
2022-12-31T12:08:16.299Z,11.41
2022-12-31T12:10:46.406Z,11.40
2022-12-31T12:13:20.341Z,11.43
2022-12-31T12:15:50.128Z,11.42
2022-12-31T12:18:25.094Z,11.46
2022-12-31T12:20:55.928Z,11.37
2022-12-31T12:23:27.465Z,11.47
2022-12-31T12:25:56.778Z,11.39
2022-12-31T12:28:27.029Z,11.47
2022-12-31T12:30:58.066Z,11.50
2022-12-31T12:33:28.537Z,11.52
2022-12-31T12:36:07.790Z,11.35
2022-12-31T12:38:39.358Z,11.53
2022-12-31T12:41:09.501Z,11.52
2022-12-31T12:43:39.404Z,11.55
2022-12-31T12:46:14.007Z,11.59
2022-12-31T12:48:43.964Z,11.49
2022-12-31T12:51:16.152Z,11.58
2022-12-31T12:53:49.150Z,11.64
2022-12-31T12:56:22.870Z,11.61
2022-12-31T12:58:56.142Z,11.68
2022-12-31T13:01:26.699Z,11.71
2022-12-31T13:04:33.951Z,11.71
2022-12-31T13:07:08.539Z,11.76
2022-12-31T13:09:43.853Z,11.77
2022-12-31T13:12:16.392Z,11.78
2022-12-31T13:14:47.387Z,11.83
2022-12-31T13:17:24.417Z,11.81
2022-12-31T13:19:55.283Z,11.83
2022-12-31T13:22:26.926Z,11.79
2022-12-31T13:24:59.286Z,11.85
2022-12-31T13:27:29.645Z,11.88
2022-12-31T13:30:00.785Z,11.95
2022-12-31T13:32:31.416Z,11.96
2022-12-31T13:35:01.822Z,11.72
2022-12-31T13:37:32.554Z,11.96
2022-12-31T13:40:04.948Z,11.99
2022-12-31T13:42:36.640Z,11.97
2022-12-31T13:45:07.369Z,11.92
2022-12-31T13:47:36.906Z,12.03
2022-12-31T13:50:14.386Z,12.01
2022-12-31T13:52:45.760Z,12.09
2022-12-31T13:55:17.343Z,12.18
2022-12-31T13:57:47.068Z,12.18
2022-12-31T14:00:20.721Z,12.18
2022-12-31T14:02:53.460Z,12.16
2022-12-31T14:05:24.998Z,12.07
2022-12-31T14:07:55.300Z,12.20
2022-12-31T14:10:29.009Z,12.34
2022-12-31T14:13:00.580Z,12.26
2022-12-31T14:15:31.051Z,12.27
2022-12-31T14:18:02.111Z,12.15
2022-12-31T14:20:33.395Z,12.13
2022-12-31T14:23:04.349Z,12.13
2022-12-31T14:25:35.763Z,12.34
2022-12-31T14:28:05.001Z,12.19
2022-12-31T14:30:35.199Z,12.18
2022-12-31T14:33:12.082Z,11.99
2022-12-31T14:35:53.858Z,12.09
2022-12-31T14:38:26.488Z,12.16
2022-12-31T14:41:02.633Z,12.22
2022-12-31T14:43:34.868Z,12.22
2022-12-31T14:46:07.846Z,12.33
2022-12-31T14:48:39.098Z,12.22
2022-12-31T14:51:08.652Z,12.37
2022-12-31T14:53:37.904Z,12.44
2022-12-31T14:56:26.128Z,12.48
2022-12-31T14:58:56.571Z,12.50
2022-12-31T15:01:26.519Z,12.47
2022-12-31T15:03:58.048Z,12.43
2022-12-31T15:06:32.516Z,12.38
2022-12-31T15:09:08.124Z,12.53
2022-12-31T15:11:49.980Z,12.60
2022-12-31T15:14:23.585Z,12.68
2022-12-31T15:16:54.645Z,12.79
2022-12-31T15:19:47.872Z,12.87
2022-12-31T15:22:22.037Z,12.85
2022-12-31T15:24:51.295Z,12.96
2022-12-31T15:27:30.583Z,12.90
2022-12-31T15:30:00.025Z,12.91
2022-12-31T15:32:31.013Z,12.87
2022-12-31T15:35:03.223Z,12.93
2022-12-31T15:37:33.698Z,13.03
2022-12-31T15:40:06.752Z,12.95
2022-12-31T15:42:49.703Z,13.00
2022-12-31T15:45:21.877Z,13.21
2022-12-31T15:47:53.251Z,12.97
2022-12-31T15:50:22.947Z,13.04
2022-12-31T15:52:54.185Z,13.22
2022-12-31T15:55:28.051Z,13.40
2022-12-31T15:58:00.320Z,13.56
2022-12-31T16:00:30.243Z,13.50
2022-12-31T16:02:59.883Z,13.50
2022-12-31T16:05:29.330Z,13.63
2022-12-31T16:07:59.574Z,13.72
2022-12-31T16:10:29.580Z,13.81
2022-12-31T16:13:00.572Z,13.70
2022-12-31T16:15:30.977Z,13.73
2022-12-31T16:18:01.544Z,13.67
2022-12-31T16:20:31.859Z,13.73
2022-12-31T16:23:02.513Z,13.56
2022-12-31T16:25:33.492Z,13.71
2022-12-31T16:28:04.932Z,13.71
2022-12-31T16:30:35.999Z,13.56
2022-12-31T16:33:07.589Z,13.46
2022-12-31T16:35:37.776Z,13.72
2022-12-31T16:38:14.888Z,13.49
2022-12-31T16:40:44.647Z,13.57
2022-12-31T16:43:25.969Z,13.54
2022-12-31T16:45:56.659Z,13.65
2022-12-31T16:48:26.607Z,13.58
2022-12-31T16:50:56.402Z,13.61
2022-12-31T16:53:26.589Z,13.66
2022-12-31T16:55:56.449Z,13.83
2022-12-31T16:58:27.935Z,13.88
2022-12-31T17:00:57.441Z,13.83
2022-12-31T17:03:26.996Z,13.98
2022-12-31T17:05:58.116Z,13.90
2022-12-31T17:08:28.504Z,13.87
2022-12-31T17:10:57.823Z,13.89
2022-12-31T17:13:32.170Z,13.88
2022-12-31T17:16:01.589Z,13.99
2022-12-31T17:18:32.082Z,13.96
2022-12-31T17:21:05.963Z,13.95
2022-12-31T17:23:35.873Z,14.06
2022-12-31T17:26:07.150Z,14.04
2022-12-31T17:28:41.901Z,14.09
2022-12-31T17:31:27.786Z,14.13
2022-12-31T17:34:05.696Z,14.10
2022-12-31T17:36:35.131Z,14.02
2022-12-31T17:39:12.386Z,14.04
2022-12-31T17:41:41.651Z,14.00
2022-12-31T17:44:14.555Z,14.12
2022-12-31T17:46:43.859Z,14.10
2022-12-31T17:49:13.793Z,14.02
2022-12-31T17:51:47.517Z,14.07
2022-12-31T17:54:17.965Z,14.16
2022-12-31T17:56:47.263Z,13.99
2022-12-31T17:59:18.892Z,14.17
2022-12-31T18:01:48.641Z,14.08
2022-12-31T18:04:19.142Z,14.06
2022-12-31T18:06:48.379Z,14.20
2022-12-31T18:09:18.277Z,14.16
2022-12-31T18:11:47.618Z,14.17
2022-12-31T18:14:18.648Z,14.15
2022-12-31T18:16:48.360Z,14.14
2022-12-31T18:19:45.616Z,14.12
2022-12-31T18:22:07.191Z,14.14
2022-12-31T18:24:37.165Z,14.14
2022-12-31T18:27:07.609Z,14.15
2022-12-31T18:29:38.708Z,14.19
2022-12-31T18:32:20.513Z,14.41
2022-12-31T18:34:50.323Z,14.34
2022-12-31T18:37:22.188Z,14.26
2022-12-31T18:39:52.047Z,14.20
2022-12-31T18:42:21.352Z,14.18
2022-12-31T18:44:52.410Z,14.47
2022-12-31T18:47:23.315Z,14.40
2022-12-31T18:49:52.836Z,14.45
2022-12-31T18:52:23.129Z,14.63
2022-12-31T18:54:52.750Z,14.67
2022-12-31T18:57:22.027Z,14.66
2022-12-31T18:59:53.057Z,14.66
2022-12-31T19:02:22.512Z,14.65
2022-12-31T19:04:52.165Z,14.51
2022-12-31T19:07:21.584Z,14.71
2022-12-31T19:09:56.365Z,14.49
2022-12-31T19:12:27.614Z,14.52
2022-12-31T19:14:59.860Z,14.37
2022-12-31T19:17:29.089Z,14.38
2022-12-31T19:20:04.315Z,14.67
2022-12-31T19:22:33.572Z,14.43
2022-12-31T19:25:03.131Z,14.34
2022-12-31T19:27:32.365Z,14.27
2022-12-31T19:30:03.283Z,14.31
2022-12-31T19:32:32.604Z,14.58
2022-12-31T19:35:02.308Z,14.65
2022-12-31T19:37:31.586Z,14.77
2022-12-31T19:40:02.333Z,14.76
2022-12-31T19:42:31.579Z,14.77
2022-12-31T19:45:02.665Z,14.69
2022-12-31T19:47:31.922Z,14.67
2022-12-31T19:50:01.475Z,14.65
2022-12-31T19:52:30.724Z,14.59
2022-12-31T19:55:00.337Z,14.49
2022-12-31T19:57:29.529Z,14.50
2022-12-31T19:59:59.080Z,14.33
2022-12-31T20:02:29.841Z,14.35
2022-12-31T20:04:59.635Z,14.28
2022-12-31T20:07:28.811Z,14.26
2022-12-31T20:09:58.482Z,14.20
2022-12-31T20:12:28.031Z,14.30
2022-12-31T20:14:57.560Z,14.31
2022-12-31T20:17:26.921Z,14.21
2022-12-31T20:19:58.297Z,14.38
2022-12-31T20:22:27.579Z,14.39
2022-12-31T20:24:58.358Z,14.15
2022-12-31T20:27:27.637Z,14.12
2022-12-31T20:29:57.157Z,14.10
2022-12-31T20:32:26.409Z,14.40
2022-12-31T20:34:57.523Z,14.36
2022-12-31T20:37:26.719Z,14.19
2022-12-31T20:39:56.356Z,14.28
2022-12-31T20:42:25.596Z,14.29
2022-12-31T20:44:55.174Z,14.26
2022-12-31T20:47:24.405Z,14.19
2022-12-31T20:50:10.836Z,14.42
2022-12-31T20:52:42.485Z,14.25
2022-12-31T20:55:13.881Z,14.50
2022-12-31T20:57:43.102Z,14.62
2022-12-31T21:00:14.981Z,14.70
2022-12-31T21:02:46.664Z,14.53
2022-12-31T21:05:21.324Z,14.54
2022-12-31T21:07:52.069Z,14.64
2022-12-31T21:10:21.636Z,14.58
2022-12-31T21:12:53.469Z,14.70
2022-12-31T21:15:23.264Z,14.72
2022-12-31T21:17:52.498Z,14.72
2022-12-31T21:20:22.168Z,14.73
2022-12-31T21:22:53.135Z,14.74
2022-12-31T21:25:22.691Z,14.74
2022-12-31T21:28:30.351Z,14.77
2022-12-31T21:31:00.394Z,14.76
2022-12-31T21:33:29.642Z,14.79
2022-12-31T21:36:04.207Z,14.78
2022-12-31T21:38:37.122Z,14.79
2022-12-31T21:41:07.433Z,14.78
2022-12-31T21:43:36.660Z,14.79
2022-12-31T21:46:06.918Z,14.79
2022-12-31T21:48:36.206Z,14.78
2022-12-31T21:51:06.719Z,14.72
2022-12-31T21:53:37.810Z,14.76
2022-12-31T21:56:09.775Z,14.76
2022-12-31T21:58:39.209Z,14.54
2022-12-31T22:01:25.913Z,14.34
2022-12-31T22:03:55.367Z,14.32
2022-12-31T22:06:25.124Z,14.28
2022-12-31T22:08:56.290Z,14.31
2022-12-31T22:11:27.047Z,14.19
2022-12-31T22:13:56.410Z,14.26
2022-12-31T22:16:26.068Z,14.15
2022-12-31T22:18:56.133Z,14.13
2022-12-31T22:21:26.781Z,14.29
2022-12-31T22:23:58.868Z,14.20
2022-12-31T22:26:29.535Z,14.07
2022-12-31T22:28:59.810Z,14.15
2022-12-31T22:31:31.236Z,14.07
2022-12-31T22:34:00.642Z,14.17
2022-12-31T22:36:30.369Z,14.35
2022-12-31T22:39:01.210Z,14.49
2022-12-31T22:41:31.000Z,14.30
2022-12-31T22:44:04.195Z,14.47
2022-12-31T22:46:34.844Z,14.31
2022-12-31T22:49:04.720Z,14.46
2022-12-31T22:51:56.079Z,14.54
2022-12-31T22:54:25.017Z,14.67
2022-12-31T22:56:54.623Z,14.69
2022-12-31T22:59:25.094Z,14.68
2022-12-31T23:01:54.799Z,14.58
2022-12-31T23:04:24.013Z,14.70
2022-12-31T23:06:53.757Z,14.76
2022-12-31T23:09:41.674Z,14.81
2022-12-31T23:12:11.664Z,14.85
2022-12-31T23:14:57.713Z,14.88
2022-12-31T23:17:45.261Z,14.90
2022-12-31T23:20:32.148Z,14.90
2022-12-31T23:23:10.982Z,14.92
2022-12-31T23:25:42.416Z,14.92
2022-12-31T23:28:12.891Z,14.89
2022-12-31T23:30:42.326Z,14.93
2022-12-31T23:33:14.602Z,14.87
2022-12-31T23:35:44.019Z,14.80
2022-12-31T23:38:13.831Z,14.87
2022-12-31T23:40:44.507Z,14.93
2022-12-31T23:43:19.941Z,14.92
2022-12-31T23:45:49.548Z,14.93
2022-12-31T23:48:19.224Z,14.93
2022-12-31T23:50:52.927Z,14.94
2022-12-31T23:53:23.540Z,14.94
2022-12-31T23:55:54.198Z,14.95
2022-12-31T23:58:23.861Z,14.95
